SBI6756 LTAI-USSS
Flight info
| Callsign | SBI6756 |
|---|---|
| Flight time | N/A |
| Altitude | 33000 |
| Route | TEWHE UR55 MUT/N0466F320 UA285 SELVI/N0463F330 UA285 SIV UW706 TBN UN37 SARPI DCT FOQUS DCT LURIS/K0854F330 A955 PINMU DCT KUDAS DCT ITAKA N154 NOGBU N996 AGILA/K0854F350 N996 KODUM Z210 EKTOB L992 NEBIS NEBIS6R |
| Aircraft | B738/M-SDE2E3FGHIRWXY/LB1 |
Departure
| Time | N/A |
|---|---|
| Airport | Antalya International Airport (LTAI) |
Arrival
| Time | 2026-05-01 13:07 |
|---|---|
| Airport | Koltsovo Airport (USSS) |
| Time | Latitude | Longitude | Altitude | Speed | Heading |
|---|---|---|---|---|---|
| 2026-05-01 12:10 | 52.19210 | 58.12913 | 34935 ft | 498 kts | 12° |
| 2026-05-01 12:11 | 52.25832 | 58.16205 | 34937 ft | 498 kts | 12° |
| 2026-05-01 12:11 | 52.32465 | 58.19513 | 34933 ft | 498 kts | 12° |
| 2026-05-01 12:12 | 52.39094 | 58.22829 | 34927 ft | 498 kts | 13° |
| 2026-05-01 12:12 | 52.45712 | 58.26151 | 34935 ft | 497 kts | 13° |
| 2026-05-01 12:13 | 52.52298 | 58.29467 | 34932 ft | 497 kts | 13° |
| 2026-05-01 12:13 | 52.58919 | 58.32811 | 34928 ft | 497 kts | 13° |
| 2026-05-01 12:14 | 52.65528 | 58.36216 | 34932 ft | 497 kts | 14° |
| 2026-05-01 12:14 | 52.72126 | 58.39652 | 34930 ft | 497 kts | 14° |
| 2026-05-01 12:15 | 52.78717 | 58.43091 | 34934 ft | 496 kts | 14° |
| 2026-05-01 12:15 | 52.85258 | 58.46508 | 34923 ft | 496 kts | 14° |
| 2026-05-01 12:16 | 52.91844 | 58.49957 | 34924 ft | 496 kts | 14° |
| 2026-05-01 12:16 | 52.98433 | 58.53420 | 34928 ft | 497 kts | 14° |
| 2026-05-01 12:17 | 53.05021 | 58.56893 | 34922 ft | 497 kts | 14° |
| 2026-05-01 12:17 | 53.11622 | 58.60385 | 34917 ft | 497 kts | 15° |
| 2026-05-01 12:18 | 53.18221 | 58.63887 | 34918 ft | 498 kts | 15° |
| 2026-05-01 12:18 | 53.24824 | 58.67403 | 34914 ft | 498 kts | 15° |
| 2026-05-01 12:19 | 53.30648 | 58.70513 | 34912 ft | 499 kts | 15° |
| 2026-05-01 12:19 | 53.37311 | 58.74082 | 34916 ft | 499 kts | 15° |
| 2026-05-01 12:20 | 53.43942 | 58.77574 | 34915 ft | 499 kts | 14° |
| 2026-05-01 12:20 | 53.50609 | 58.80842 | 34923 ft | 499 kts | 14° |
| 2026-05-01 12:21 | 53.57248 | 58.84077 | 34917 ft | 500 kts | 14° |
| 2026-05-01 12:21 | 53.63933 | 58.87380 | 34913 ft | 501 kts | 14° |
| 2026-05-01 12:22 | 53.70609 | 58.90709 | 34917 ft | 500 kts | 14° |
| 2026-05-01 12:22 | 53.77288 | 58.94052 | 34909 ft | 500 kts | 14° |
| 2026-05-01 12:23 | 53.83961 | 58.97401 | 34913 ft | 500 kts | 15° |
| 2026-05-01 12:23 | 53.90625 | 59.00757 | 34912 ft | 499 kts | 15° |
| 2026-05-01 12:24 | 53.97282 | 59.04120 | 34913 ft | 499 kts | 15° |
| 2026-05-01 12:24 | 54.03899 | 59.07478 | 34913 ft | 499 kts | 15° |
| 2026-05-01 12:25 | 54.13543 | 59.12497 | 34902 ft | 499 kts | 15° |
| 2026-05-01 12:26 | 54.20182 | 59.15980 | 34914 ft | 499 kts | 15° |
| 2026-05-01 12:26 | 54.30154 | 59.21218 | 34919 ft | 500 kts | 15° |
| 2026-05-01 12:27 | 54.40148 | 59.26491 | 34924 ft | 501 kts | 16° |
| 2026-05-01 12:28 | 54.50152 | 59.31797 | 34926 ft | 502 kts | 16° |
| 2026-05-01 12:29 | 54.60161 | 59.37134 | 34922 ft | 502 kts | 16° |
| 2026-05-01 12:29 | 54.63528 | 59.38934 | 34406 ft | 510 kts | 16° |
| 2026-05-01 12:29 | 54.70229 | 59.42529 | 33308 ft | 503 kts | 17° |
| 2026-05-01 12:30 | 54.76847 | 59.46057 | 32394 ft | 492 kts | 17° |
| 2026-05-01 12:30 | 54.80109 | 59.47768 | 31920 ft | 487 kts | 17° |
| 2026-05-01 12:30 | 54.83335 | 59.49457 | 31455 ft | 482 kts | 17° |
| 2026-05-01 12:31 | 54.86528 | 59.51132 | 31002 ft | 477 kts | 17° |
| 2026-05-01 12:31 | 54.89702 | 59.52803 | 30551 ft | 473 kts | 18° |
| 2026-05-01 12:31 | 54.92842 | 59.54461 | 30112 ft | 469 kts | 18° |
| 2026-05-01 12:31 | 54.95944 | 59.56104 | 29594 ft | 465 kts | 18° |
| 2026-05-01 12:32 | 54.99018 | 59.57737 | 29102 ft | 459 kts | 18° |
| 2026-05-01 12:32 | 55.05063 | 59.60954 | 28178 ft | 448 kts | 18° |
| 2026-05-01 12:32 | 55.08022 | 59.62532 | 27730 ft | 443 kts | 18° |
| 2026-05-01 12:33 | 55.10949 | 59.64097 | 27289 ft | 438 kts | 18° |
| 2026-05-01 12:33 | 55.13849 | 59.65649 | 26833 ft | 433 kts | 18° |
| 2026-05-01 12:33 | 55.16717 | 59.67186 | 26403 ft | 429 kts | 18° |
| 2026-05-01 12:33 | 55.19558 | 59.68710 | 25959 ft | 425 kts | 18° |
| 2026-05-01 12:34 | 55.22378 | 59.70170 | 25540 ft | 421 kts | 15° |
| 2026-05-01 12:34 | 55.25195 | 59.71333 | 25297 ft | 412 kts | 13° |
| 2026-05-01 12:34 | 55.27982 | 59.72352 | 25030 ft | 405 kts | 12° |
| 2026-05-01 12:34 | 55.30732 | 59.73338 | 24659 ft | 402 kts | 12° |
| 2026-05-01 12:35 | 55.33424 | 59.74328 | 24272 ft | 399 kts | 13° |
| 2026-05-01 12:35 | 55.36172 | 59.75365 | 23852 ft | 398 kts | 13° |
| 2026-05-01 12:35 | 55.38866 | 59.76395 | 23414 ft | 395 kts | 13° |
| 2026-05-01 12:35 | 55.41501 | 59.77434 | 23059 ft | 389 kts | 14° |
| 2026-05-01 12:36 | 55.44129 | 59.78504 | 22660 ft | 385 kts | 14° |
| 2026-05-01 12:36 | 55.46724 | 59.79572 | 22249 ft | 382 kts | 13° |
| 2026-05-01 12:36 | 55.49304 | 59.80636 | 21844 ft | 379 kts | 13° |
| 2026-05-01 12:36 | 55.51866 | 59.81692 | 21427 ft | 377 kts | 13° |
| 2026-05-01 12:37 | 55.54414 | 59.82742 | 21022 ft | 375 kts | 13° |
| 2026-05-01 12:37 | 55.56951 | 59.83786 | 20617 ft | 373 kts | 13° |
| 2026-05-01 12:37 | 55.59476 | 59.84826 | 20205 ft | 371 kts | 12° |
| 2026-05-01 12:37 | 55.61985 | 59.85860 | 19812 ft | 369 kts | 12° |
| 2026-05-01 12:38 | 55.64476 | 59.86887 | 19420 ft | 366 kts | 12° |
| 2026-05-01 12:38 | 55.66948 | 59.87907 | 19029 ft | 364 kts | 12° |
| 2026-05-01 12:38 | 55.69406 | 59.88923 | 18637 ft | 361 kts | 11° |
| 2026-05-01 12:38 | 55.71844 | 59.89932 | 18261 ft | 359 kts | 11° |
| 2026-05-01 12:39 | 55.74276 | 59.90939 | 17824 ft | 358 kts | 11° |
| 2026-05-01 12:39 | 55.76698 | 59.91944 | 17399 ft | 356 kts | 11° |
| 2026-05-01 12:39 | 55.79105 | 59.92943 | 17002 ft | 353 kts | 11° |
| 2026-05-01 12:39 | 55.81463 | 59.93924 | 16617 ft | 350 kts | 12° |
| 2026-05-01 12:40 | 55.83821 | 59.94906 | 16238 ft | 347 kts | 12° |
| 2026-05-01 12:40 | 55.86169 | 59.95884 | 15849 ft | 345 kts | 12° |
| 2026-05-01 12:40 | 55.88494 | 59.96855 | 15466 ft | 342 kts | 12° |
| 2026-05-01 12:40 | 55.90805 | 59.97820 | 15096 ft | 340 kts | 12° |
| 2026-05-01 12:41 | 55.93088 | 59.98841 | 14776 ft | 336 kts | 14° |
| 2026-05-01 12:41 | 55.95320 | 60.00007 | 14424 ft | 334 kts | 16° |
| 2026-05-01 12:41 | 55.97534 | 60.01221 | 14065 ft | 332 kts | 16° |
| 2026-05-01 12:41 | 55.99731 | 60.02434 | 13696 ft | 330 kts | 17° |
| 2026-05-01 12:42 | 56.01919 | 60.03638 | 13278 ft | 327 kts | 16° |
| 2026-05-01 12:42 | 56.04084 | 60.04823 | 12925 ft | 324 kts | 16° |
| 2026-05-01 12:42 | 56.06232 | 60.05993 | 12564 ft | 321 kts | 16° |
| 2026-05-01 12:42 | 56.06953 | 60.06386 | 12435 ft | 319 kts | 16° |
| 2026-05-01 12:43 | 56.12517 | 60.09406 | 11505 ft | 311 kts | 16° |
| 2026-05-01 12:43 | 56.14583 | 60.10527 | 11150 ft | 308 kts | 16° |
| 2026-05-01 12:43 | 56.16626 | 60.11636 | 10814 ft | 305 kts | 16° |
| 2026-05-01 12:44 | 56.18652 | 60.12737 | 10467 ft | 303 kts | 16° |
| 2026-05-01 12:44 | 56.20646 | 60.13822 | 10324 ft | 294 kts | 16° |
| 2026-05-01 12:44 | 56.24438 | 60.15888 | 10064 ft | 276 kts | 16° |
| 2026-05-01 12:45 | 56.27977 | 60.17821 | 9780 ft | 262 kts | 16° |
| 2026-05-01 12:45 | 56.29733 | 60.18780 | 9524 ft | 258 kts | 16° |
| 2026-05-01 12:45 | 56.31406 | 60.19696 | 9364 ft | 252 kts | 16° |
| 2026-05-01 12:46 | 56.33096 | 60.20621 | 9116 ft | 249 kts | 16° |
| 2026-05-01 12:46 | 56.34726 | 60.21514 | 8870 ft | 247 kts | 16° |
| 2026-05-01 12:46 | 56.36364 | 60.22413 | 8610 ft | 245 kts | 16° |
| 2026-05-01 12:46 | 56.38001 | 60.23312 | 8335 ft | 245 kts | 16° |
| 2026-05-01 12:47 | 56.39630 | 60.24207 | 8067 ft | 245 kts | 16° |
| 2026-05-01 12:47 | 56.41256 | 60.25101 | 7800 ft | 244 kts | 16° |
| 2026-05-01 12:47 | 56.42877 | 60.25994 | 7544 ft | 243 kts | 16° |
| 2026-05-01 12:47 | 56.44489 | 60.26881 | 7351 ft | 239 kts | 16° |
| 2026-05-01 12:48 | 56.45791 | 60.27599 | 7252 ft | 234 kts | 16° |
| 2026-05-01 12:48 | 56.47328 | 60.28447 | 7137 ft | 227 kts | 16° |
| 2026-05-01 12:48 | 56.48851 | 60.28853 | 7014 ft | 220 kts | 353° |
| 2026-05-01 12:48 | 56.50251 | 60.27925 | 6950 ft | 213 kts | 330° |
| 2026-05-01 12:49 | 56.51344 | 60.26116 | 6956 ft | 217 kts | 311° |
| 2026-05-01 12:49 | 56.52197 | 60.23775 | 6988 ft | 228 kts | 306° |
| 2026-05-01 12:49 | 56.52741 | 60.22126 | 6999 ft | 232 kts | 305° |
| 2026-05-01 12:49 | 56.53563 | 60.19610 | 6994 ft | 231 kts | 305° |
| 2026-05-01 12:50 | 56.54379 | 60.17121 | 6985 ft | 228 kts | 305° |
| 2026-05-01 12:50 | 56.55642 | 60.14166 | 6972 ft | 220 kts | 323° |
| 2026-05-01 12:50 | 56.56830 | 60.12436 | 6978 ft | 219 kts | 325° |
| 2026-05-01 12:50 | 56.57642 | 60.11290 | 6973 ft | 218 kts | 325° |
| 2026-05-01 12:51 | 56.58844 | 60.09573 | 6986 ft | 222 kts | 324° |
| 2026-05-01 12:51 | 56.60067 | 60.07805 | 6995 ft | 226 kts | 324° |
| 2026-05-01 12:51 | 56.62548 | 60.04372 | 6964 ft | 222 kts | 336° |
| 2026-05-01 12:52 | 56.63992 | 60.03439 | 6974 ft | 220 kts | 343° |
| 2026-05-01 12:52 | 56.66890 | 60.01670 | 6972 ft | 220 kts | 342° |
| 2026-05-01 12:52 | 56.68318 | 60.00778 | 6983 ft | 219 kts | 342° |
| 2026-05-01 12:53 | 56.71225 | 59.99019 | 6974 ft | 221 kts | 350° |
| 2026-05-01 12:53 | 56.72756 | 59.98873 | 6986 ft | 220 kts | 1° |
| 2026-05-01 12:53 | 56.74291 | 59.98960 | 6977 ft | 221 kts | 2° |
| 2026-05-01 12:54 | 56.75831 | 59.99045 | 6989 ft | 222 kts | 1° |
| 2026-05-01 12:54 | 56.78932 | 59.99173 | 6976 ft | 223 kts | 1° |
| 2026-05-01 12:54 | 56.80482 | 59.99260 | 6997 ft | 224 kts | 6° |
| 2026-05-01 12:55 | 56.83467 | 60.01154 | 7010 ft | 231 kts | 20° |
| 2026-05-01 12:55 | 56.84925 | 60.02337 | 6989 ft | 229 kts | 32° |
| 2026-05-01 12:55 | 56.85959 | 60.04512 | 6966 ft | 230 kts | 61° |
| 2026-05-01 12:56 | 56.86301 | 60.07377 | 6856 ft | 237 kts | 89° |
| 2026-05-01 12:56 | 56.85831 | 60.10305 | 6716 ft | 249 kts | 119° |
| 2026-05-01 12:56 | 56.84655 | 60.12699 | 6555 ft | 258 kts | 135° |
| 2026-05-01 12:56 | 56.83256 | 60.14811 | 6334 ft | 262 kts | 139° |
| 2026-05-01 12:57 | 56.81825 | 60.16857 | 6100 ft | 261 kts | 139° |
| 2026-05-01 12:57 | 56.78980 | 60.20937 | 5641 ft | 258 kts | 139° |
| 2026-05-01 12:57 | 56.77593 | 60.22945 | 5428 ft | 255 kts | 139° |
| 2026-05-01 12:58 | 56.76214 | 60.24954 | 5218 ft | 252 kts | 138° |
| 2026-05-01 12:58 | 56.74857 | 60.26933 | 5012 ft | 248 kts | 138° |
| 2026-05-01 12:58 | 56.73524 | 60.28876 | 4828 ft | 243 kts | 139° |
| 2026-05-01 12:59 | 56.70909 | 60.32756 | 4424 ft | 241 kts | 131° |
| 2026-05-01 12:59 | 56.70122 | 60.35345 | 4231 ft | 231 kts | 97° |
| 2026-05-01 12:59 | 56.70712 | 60.40548 | 3930 ft | 200 kts | 61° |
| 2026-05-01 13:00 | 56.71874 | 60.44880 | 3591 ft | 182 kts | 60° |
| 2026-05-01 13:00 | 56.72418 | 60.46912 | 3426 ft | 175 kts | 60° |
| 2026-05-01 13:01 | 56.73461 | 60.50848 | 3165 ft | 173 kts | 60° |
| 2026-05-01 13:01 | 56.73983 | 60.52829 | 3032 ft | 174 kts | 60° |
| 2026-05-01 13:01 | 56.74868 | 60.56919 | 2746 ft | 175 kts | 80° |
| 2026-05-01 13:02 | 56.74930 | 60.59078 | 2601 ft | 168 kts | 84° |
| 2026-05-01 13:07 | 56.74831 | 60.81950 | 777 ft | 19 kts | 297° |
| 2026-05-01 13:07 | 56.74861 | 60.81716 | 777 ft | 19 kts | 271° |
| 2026-05-01 13:07 | 56.74862 | 60.81478 | 777 ft | 18 kts | 270° |
| 2026-05-01 13:08 | 56.74863 | 60.81249 | 777 ft | 18 kts | 270° |
| 2026-05-01 13:08 | 56.74856 | 60.81029 | 777 ft | 17 kts | 256° |
| 2026-05-01 13:08 | 56.74852 | 60.80816 | 777 ft | 17 kts | 269° |
| 2026-05-01 13:08 | 56.74850 | 60.80610 | 777 ft | 16 kts | 270° |
| 2026-05-01 13:09 | 56.74858 | 60.80511 | 777 ft | 6 kts | 311° |
| 2026-05-01 13:09 | 56.74899 | 60.80498 | 777 ft | 9 kts | 0° |
| 2026-05-01 13:09 | 56.74938 | 60.80497 | 777 ft | 2 kts | 359° |
| 2026-05-01 13:09 | 56.74941 | 60.80497 | 777 ft | 0 kts | 359° |
| 2026-05-01 13:10 | 56.74940 | 60.80497 | 777 ft | 1 kts | 359° |
| 2026-05-01 13:10 | 56.74938 | 60.80497 | 777 ft | 0 kts | 359° |